createdAt,value
2022-08-02T00:01:07.137Z,18.45
2022-08-02T00:06:12.341Z,18.43
2022-08-02T00:11:16.059Z,18.33
2022-08-02T00:16:19.903Z,18.36
2022-08-02T00:21:42.438Z,18.32
2022-08-02T00:26:46.180Z,18.34
2022-08-02T00:31:49.898Z,18.31
2022-08-02T00:36:55.006Z,18.30
2022-08-02T00:41:58.778Z,18.17
2022-08-02T00:47:02.778Z,18.15
2022-08-02T00:52:08.756Z,18.15
2022-08-02T00:57:12.917Z,18.12
2022-08-02T01:02:17.243Z,18.17
2022-08-02T01:07:22.665Z,18.19
2022-08-02T01:12:26.345Z,17.96
2022-08-02T01:17:37.411Z,17.97
2022-08-02T01:23:07.678Z,17.91
2022-08-02T01:28:29.277Z,17.90
2022-08-02T01:33:40.062Z,17.88
2022-08-02T01:38:47.655Z,17.93
2022-08-02T01:43:56.763Z,17.86
2022-08-02T01:49:04.371Z,17.81
2022-08-02T01:54:15.472Z,17.82
2022-08-02T01:59:23.581Z,17.80
2022-08-02T02:04:30.095Z,17.71
2022-08-02T02:09:50.346Z,17.72
2022-08-02T02:14:57.056Z,17.61
2022-08-02T02:20:02.751Z,17.52
2022-08-02T02:25:07.778Z,17.46
2022-08-02T02:30:17.990Z,17.44
2022-08-02T02:35:23.027Z,17.34
2022-08-02T02:40:28.618Z,17.32
2022-08-02T02:45:35.768Z,17.22
2022-08-02T02:50:40.488Z,17.19
2022-08-02T02:56:02.550Z,17.21
2022-08-02T03:01:56.018Z,17.13
2022-08-02T03:06:49.373Z,17.05
2022-08-02T03:11:54.943Z,16.99
2022-08-02T03:17:00.079Z,17.01
2022-08-02T03:22:03.813Z,17.03
2022-08-02T03:27:08.062Z,16.92
2022-08-02T03:32:13.511Z,16.96
2022-08-02T03:37:17.931Z,16.95
2022-08-02T03:42:23.066Z,16.94
2022-08-02T03:47:29.421Z,16.95
2022-08-02T03:52:34.565Z,17.01
2022-08-02T03:57:38.939Z,16.87
2022-08-02T04:02:44.050Z,16.88
2022-08-02T04:08:34.266Z,16.85
2022-08-02T04:13:13.116Z,16.91
2022-08-02T04:18:23.605Z,16.97
2022-08-02T04:23:29.018Z,16.84
2022-08-02T04:28:37.364Z,16.83
2022-08-02T04:33:42.725Z,16.84
2022-08-02T04:38:46.444Z,16.87
2022-08-02T04:43:52.578Z,16.84
2022-08-02T04:48:57.639Z,16.83
2022-08-02T04:54:02.813Z,16.85
2022-08-02T04:59:10.197Z,16.87
2022-08-02T05:04:15.340Z,16.83
2022-08-02T05:09:19.196Z,16.89
2022-08-02T05:14:22.928Z,16.94
2022-08-02T05:19:28.448Z,16.90
2022-08-02T05:24:32.323Z,17.01
2022-08-02T05:29:36.070Z,17.00
2022-08-02T05:34:41.233Z,16.98
2022-08-02T05:39:55.433Z,16.99
2022-08-02T05:45:00.197Z,16.98
2022-08-02T05:50:06.857Z,17.03
2022-08-02T05:55:14.825Z,17.14
2022-08-02T06:00:19.389Z,17.38
2022-08-02T06:05:28.397Z,17.49
2022-08-02T06:10:33.327Z,17.59
2022-08-02T06:15:42.558Z,17.62
2022-08-02T06:22:35.080Z,17.67
2022-08-02T06:26:25.703Z,17.76
2022-08-02T06:31:29.912Z,17.86
2022-08-02T06:36:43.215Z,17.96
2022-08-02T06:41:50.403Z,18.06
2022-08-02T06:47:11.489Z,18.18
2022-08-02T06:52:19.241Z,18.31
2022-08-02T06:57:23.291Z,18.45
2022-08-02T07:02:27.063Z,18.60
2022-08-02T07:07:32.409Z,18.78
2022-08-02T07:12:36.539Z,18.94
2022-08-02T07:17:40.566Z,19.11
2022-08-02T07:22:45.636Z,19.24
2022-08-02T07:27:49.413Z,19.41
2022-08-02T07:32:53.099Z,19.62
2022-08-02T07:38:02.173Z,19.81
2022-08-02T07:43:06.630Z,20.04
2022-08-02T07:48:11.423Z,20.29
2022-08-02T07:53:16.532Z,20.48
2022-08-02T07:58:20.297Z,20.68
2022-08-02T08:03:23.978Z,20.89
2022-08-02T08:08:29.121Z,21.09
2022-08-02T08:13:33.002Z,21.34
2022-08-02T08:18:36.752Z,21.52
2022-08-02T08:23:41.784Z,21.71
2022-08-02T08:28:45.488Z,21.82
2022-08-02T08:33:49.159Z,21.82
2022-08-02T08:38:54.258Z,21.98
2022-08-02T08:44:00.085Z,22.14
2022-08-02T08:49:10.314Z,22.28
2022-08-02T08:54:17.970Z,22.41
2022-08-02T08:59:21.772Z,22.51
2022-08-02T09:04:25.544Z,22.67
2022-08-02T09:09:30.624Z,22.86
2022-08-02T09:14:34.513Z,23.06
2022-08-02T09:19:38.326Z,23.29
2022-08-02T09:24:52.270Z,23.55
2022-08-02T09:30:12.770Z,23.68
2022-08-02T09:36:05.174Z,23.89
2022-08-02T09:40:58.281Z,24.09
2022-08-02T09:46:10.995Z,24.18
2022-08-02T09:51:17.780Z,24.35
2022-08-02T09:56:35.439Z,24.60
2022-08-02T10:01:40.293Z,24.97
2022-08-02T10:06:54.083Z,25.42
2022-08-02T10:12:00.678Z,25.88
2022-08-02T10:17:05.952Z,26.30
2022-08-02T10:22:12.282Z,26.94
2022-08-02T10:27:20.048Z,27.38
2022-08-02T10:32:29.674Z,27.56
2022-08-02T10:37:36.564Z,27.33
2022-08-02T10:42:49.115Z,27.77
2022-08-02T10:48:01.269Z,28.22
2022-08-02T10:53:24.899Z,28.51
2022-08-02T10:58:32.694Z,29.34
2022-08-02T11:03:40.057Z,29.70
2022-08-02T11:08:44.250Z,29.83
2022-08-02T11:14:07.109Z,30.17
2022-08-02T11:19:11.899Z,30.03
2022-08-02T11:24:27.694Z,29.81
2022-08-02T11:29:38.485Z,29.20
2022-08-02T11:34:44.084Z,29.46
2022-08-02T11:39:51.788Z,30.27
2022-08-02T11:44:57.316Z,30.48
2022-08-02T11:50:08.042Z,30.62
2022-08-02T11:55:12.455Z,29.84
2022-08-02T12:00:19.502Z,30.00
2022-08-02T12:05:44.789Z,30.25
2022-08-02T12:10:49.871Z,29.87
2022-08-02T12:16:14.951Z,30.00
2022-08-02T12:21:23.741Z,29.69
2022-08-02T12:26:27.494Z,29.82
2022-08-02T12:31:56.084Z,29.87
2022-08-02T12:37:04.089Z,29.84
2022-08-02T12:42:10.141Z,29.98
2022-08-02T12:47:15.563Z,29.90
2022-08-02T12:52:21.088Z,29.93
2022-08-02T12:57:25.162Z,29.99
2022-08-02T13:02:31.783Z,30.26
2022-08-02T13:07:35.563Z,30.39
2022-08-02T13:12:41.435Z,30.22
2022-08-02T13:17:46.625Z,30.09
2022-08-02T13:22:51.201Z,30.53
2022-08-02T13:27:57.207Z,30.66
2022-08-02T13:33:02.273Z,30.45
2022-08-02T13:38:06.650Z,30.66
2022-08-02T13:43:10.376Z,30.50
2022-08-02T13:48:17.102Z,30.56
2022-08-02T13:53:24.408Z,30.46
2022-08-02T13:58:28.118Z,30.60
2022-08-02T14:04:07.540Z,30.61
2022-08-02T14:08:56.877Z,30.62
2022-08-02T14:14:00.690Z,30.59
2022-08-02T14:19:05.867Z,30.62
2022-08-02T14:24:20.876Z,30.81
2022-08-02T14:29:24.612Z,30.90
2022-08-02T14:34:30.257Z,31.08
2022-08-02T14:39:43.449Z,30.87
2022-08-02T14:44:57.699Z,30.83
2022-08-02T14:50:02.900Z,30.93
2022-08-02T14:55:07.322Z,30.83
2022-08-02T15:00:12.332Z,30.86
2022-08-02T15:05:17.682Z,31.03
2022-08-02T15:10:22.287Z,31.07
2022-08-02T15:15:26.190Z,31.18
2022-08-02T15:20:32.093Z,31.04
2022-08-02T15:25:41.491Z,31.05
2022-08-02T15:30:45.772Z,30.96
2022-08-02T15:35:51.225Z,30.96
2022-08-02T15:40:55.228Z,30.74
2022-08-02T15:45:59.289Z,30.77
2022-08-02T15:51:04.502Z,30.72
2022-08-02T15:56:12.775Z,30.74
2022-08-02T16:01:16.932Z,30.72
2022-08-02T16:06:22.089Z,30.65
2022-08-02T16:11:29.375Z,30.50
2022-08-02T16:16:34.976Z,30.47
2022-08-02T16:21:40.446Z,30.40
2022-08-02T16:26:44.445Z,30.35
2022-08-02T16:31:48.441Z,30.37
2022-08-02T16:36:53.837Z,30.31
2022-08-02T16:41:57.668Z,30.28
2022-08-02T16:47:02.136Z,30.21
2022-08-02T16:52:07.699Z,30.10
2022-08-02T16:57:14.613Z,29.96
2022-08-02T17:02:19.955Z,29.89
2022-08-02T17:08:07.352Z,29.81
2022-08-02T17:12:54.689Z,29.80
2022-08-02T17:18:01.115Z,29.59
2022-08-02T17:23:06.386Z,29.37
2022-08-02T17:28:10.237Z,29.30
2022-08-02T17:33:14.094Z,29.23
2022-08-02T17:38:26.588Z,29.02
2022-08-02T17:43:31.180Z,28.85
2022-08-02T17:48:50.322Z,28.90
2022-08-02T17:54:00.922Z,28.59
2022-08-02T17:59:12.430Z,28.71
2022-08-02T18:04:27.511Z,28.57
2022-08-02T18:09:33.202Z,28.51
2022-08-02T18:14:38.324Z,28.22
2022-08-02T18:19:57.326Z,28.13
2022-08-02T18:25:09.816Z,28.22
2022-08-02T18:30:14.160Z,28.20
2022-08-02T18:35:25.452Z,28.01
2022-08-02T18:40:34.406Z,27.92
2022-08-02T18:46:05.502Z,27.67
2022-08-02T18:51:02.012Z,27.58
2022-08-02T18:56:07.772Z,27.45
2022-08-02T19:01:14.780Z,27.32
2022-08-02T19:06:27.647Z,27.15
2022-08-02T19:11:35.213Z,27.00
2022-08-02T19:16:39.770Z,26.84
2022-08-02T19:22:17.977Z,26.69
2022-08-02T19:27:14.126Z,26.53
2022-08-02T19:32:42.722Z,26.34
2022-08-02T19:37:43.591Z,26.22
2022-08-02T19:44:21.980Z,26.04
2022-08-02T19:48:24.159Z,25.85
2022-08-02T19:53:46.619Z,25.69
2022-08-02T19:58:55.688Z,25.55
2022-08-02T20:04:01.814Z,25.34
2022-08-02T20:09:06.363Z,25.26
2022-08-02T20:14:11.417Z,25.15
2022-08-02T20:19:17.160Z,24.98
2022-08-02T20:24:26.574Z,24.91
2022-08-02T20:29:43.232Z,24.84
2022-08-02T20:34:53.262Z,24.76
2022-08-02T20:39:57.179Z,24.66
2022-08-02T20:45:02.513Z,24.56
2022-08-02T20:50:30.749Z,24.46
2022-08-02T20:55:40.942Z,24.36
2022-08-02T21:00:46.648Z,24.26
2022-08-02T21:05:54.902Z,24.15
2022-08-02T21:10:59.948Z,24.03
2022-08-02T21:16:08.465Z,23.92
2022-08-02T21:21:14.751Z,23.88
2022-08-02T21:26:27.851Z,23.83
2022-08-02T21:31:36.454Z,23.78
2022-08-02T21:36:40.565Z,23.70
2022-08-02T21:41:46.594Z,23.54
2022-08-02T21:46:54.788Z,23.42
2022-08-02T21:51:58.890Z,23.41
2022-08-02T21:57:02.598Z,23.36
2022-08-02T22:02:09.255Z,23.31
2022-08-02T22:07:12.981Z,23.24
2022-08-02T22:12:19.195Z,23.15
2022-08-02T22:17:49.796Z,23.06
2022-08-02T22:22:50.459Z,22.92
2022-08-02T22:28:34.750Z,22.86
2022-08-02T22:33:37.536Z,22.73
2022-08-02T22:38:44.527Z,22.65
2022-08-02T22:43:49.133Z,22.49
2022-08-02T22:48:55.275Z,22.43
2022-08-02T22:53:59.924Z,22.35
2022-08-02T23:04:23.985Z,22.24
2022-08-02T23:09:27.707Z,22.13
2022-08-02T23:14:31.590Z,22.04
2022-08-02T23:19:51.792Z,21.98
2022-08-02T23:24:56.351Z,21.86
2022-08-02T23:30:00.724Z,21.76
2022-08-02T23:35:06.628Z,21.73
2022-08-02T23:40:11.043Z,21.67
2022-08-02T23:45:14.751Z,21.64
2022-08-02T23:50:20.079Z,21.61
2022-08-02T23:55:23.821Z,21.60
